createdAt,value
2019-04-26T00:04:54.627Z,13.75
2019-04-26T00:09:50.743Z,13.74
2019-04-26T00:15:05.139Z,13.52
2019-04-26T00:20:01.663Z,13.50
2019-04-26T00:24:57.875Z,13.42
2019-04-26T00:29:53.792Z,13.30
2019-04-26T00:34:49.712Z,13.23
2019-04-26T00:39:45.626Z,13.10
2019-04-26T00:44:41.954Z,13.09
2019-04-26T00:49:43.878Z,12.99
2019-04-26T00:54:35.892Z,13.03
2019-04-26T00:59:32.208Z,12.33
2019-04-26T01:04:28.226Z,11.91
2019-04-26T01:09:24.444Z,11.61
2019-04-26T01:14:20.354Z,11.70
2019-04-26T01:19:18.557Z,11.60
2019-04-26T01:24:16.885Z,11.80
2019-04-26T01:29:15.246Z,11.96
2019-04-26T01:34:11.385Z,11.53
2019-04-26T01:39:09.403Z,11.15
2019-04-26T01:44:10.524Z,11.09
2019-04-26T01:49:08.443Z,10.83
2019-04-26T01:54:04.961Z,10.60
2019-04-26T01:59:01.055Z,11.24
2019-04-26T02:03:57.108Z,10.49
2019-04-26T02:08:53.136Z,10.34
2019-04-26T02:13:49.247Z,10.22
2019-04-26T02:18:45.534Z,10.43
2019-04-26T02:23:46.126Z,10.52
2019-04-26T02:28:42.055Z,10.92
2019-04-26T02:33:38.079Z,10.62
2019-04-26T02:38:34.793Z,10.98
2019-04-26T02:43:33.878Z,11.05
2019-04-26T02:48:38.025Z,11.04
2019-04-26T02:53:54.695Z,10.88
2019-04-26T02:59:00.289Z,10.90
2019-04-26T03:03:57.418Z,10.53
2019-04-26T03:08:55.942Z,10.68
2019-04-26T03:14:01.243Z,10.91
2019-04-26T03:19:05.586Z,10.81
2019-04-26T03:24:08.093Z,10.81
2019-04-26T03:29:16.641Z,10.39
2019-04-26T03:34:21.170Z,10.11
2019-04-26T03:39:29.017Z,10.33
2019-04-26T03:44:44.172Z,9.90
2019-04-26T03:49:55.848Z,9.74
2019-04-26T03:55:01.601Z,9.77
2019-04-26T04:00:08.458Z,9.68
2019-04-26T04:05:12.857Z,10.30
2019-04-26T04:10:15.158Z,9.88
2019-04-26T04:15:15.192Z,9.83
2019-04-26T04:20:44.531Z,9.81
2019-04-26T04:25:49.241Z,9.93
2019-04-26T04:31:01.327Z,10.12
2019-04-26T04:36:00.884Z,10.16
2019-04-26T04:41:15.287Z,10.55
2019-04-26T04:46:49.201Z,11.00
2019-04-26T04:51:56.333Z,11.11
2019-04-26T04:56:56.069Z,10.89
2019-04-26T05:02:06.699Z,11.06
2019-04-26T05:07:23.346Z,11.09
2019-04-26T05:12:41.047Z,11.20
2019-04-26T05:18:10.064Z,11.27
2019-04-26T05:23:18.366Z,11.22
2019-04-26T05:28:36.730Z,11.16
2019-04-26T05:33:36.944Z,11.17
2019-04-26T05:38:39.719Z,11.32
2019-04-26T05:43:50.225Z,11.45
2019-04-26T05:49:15.882Z,11.41
2019-04-26T05:54:54.016Z,11.56
2019-04-26T06:00:24.321Z,11.54
2019-04-26T06:05:38.423Z,11.73
2019-04-26T06:10:38.137Z,11.71
2019-04-26T06:16:02.382Z,11.63
2019-04-26T06:21:03.407Z,11.71
2019-04-26T06:26:35.737Z,11.89
2019-04-26T06:31:35.481Z,11.90
2019-04-26T06:36:36.745Z,11.93
2019-04-26T06:42:02.880Z,11.97
2019-04-26T06:47:22.437Z,11.99
2019-04-26T06:52:21.676Z,12.11
2019-04-26T06:57:32.567Z,11.99
2019-04-26T07:02:52.350Z,11.99
2019-04-26T07:08:07.453Z,12.16
2019-04-26T07:13:31.896Z,12.14
2019-04-26T07:18:34.325Z,11.90
2019-04-26T07:23:44.968Z,12.11
2019-04-26T07:29:06.946Z,12.22
2019-04-26T07:34:38.823Z,11.92
2019-04-26T07:40:11.537Z,12.02
2019-04-26T07:45:25.645Z,12.10
2019-04-26T07:51:00.015Z,12.19
2019-04-26T07:55:59.907Z,12.12
2019-04-26T08:01:01.560Z,12.08
2019-04-26T08:06:05.782Z,12.24
2019-04-26T08:11:22.213Z,12.01
2019-04-26T08:16:26.880Z,11.81
2019-04-26T08:21:32.441Z,11.81
2019-04-26T08:26:30.293Z,11.65
2019-04-26T08:31:27.585Z,11.58
2019-04-26T08:36:27.036Z,11.72
2019-04-26T08:41:24.128Z,11.80
2019-04-26T08:46:23.647Z,11.91
2019-04-26T08:51:23.436Z,11.76
2019-04-26T08:56:35.166Z,11.72
2019-04-26T09:01:36.281Z,11.66
2019-04-26T09:06:42.036Z,11.64
2019-04-26T09:11:39.574Z,11.60
2019-04-26T09:16:35.629Z,11.39
2019-04-26T09:21:42.968Z,11.54
2019-04-26T09:26:42.399Z,11.46
2019-04-26T09:31:43.417Z,11.43
2019-04-26T09:36:39.592Z,11.35
2019-04-26T09:41:35.707Z,11.35
2019-04-26T09:46:48.509Z,11.49
2019-04-26T09:51:44.135Z,11.40
2019-04-26T09:56:40.289Z,11.43
2019-04-26T10:01:36.358Z,11.46
2019-04-26T10:06:32.491Z,11.39
2019-04-26T10:11:30.450Z,11.60
2019-04-26T10:16:28.301Z,11.57
2019-04-26T10:21:24.436Z,11.81
2019-04-26T10:26:23.163Z,12.06
2019-04-26T10:31:18.679Z,12.26
2019-04-26T10:36:14.760Z,12.37
2019-04-26T10:41:10.985Z,12.12
2019-04-26T10:46:07.006Z,12.50
2019-04-26T10:51:07.471Z,12.50
2019-04-26T10:56:20.234Z,12.55
2019-04-26T11:01:20.882Z,12.50
2019-04-26T11:06:16.814Z,12.14
2019-04-26T11:11:12.837Z,12.46
2019-04-26T11:16:09.078Z,12.36
2019-04-26T11:21:05.674Z,12.69
2019-04-26T11:26:02.879Z,12.73
2019-04-26T11:30:59.033Z,12.71
2019-04-26T11:35:55.010Z,12.59
2019-04-26T11:41:05.154Z,12.67
2019-04-26T11:45:49.386Z,12.72
2019-04-26T11:50:53.670Z,12.76
2019-04-26T11:55:50.259Z,12.80
2019-04-26T12:00:54.012Z,12.72
2019-04-26T12:05:51.852Z,12.95
2019-04-26T12:10:47.781Z,13.21
2019-04-26T12:15:45.363Z,12.89
2019-04-26T12:20:45.627Z,13.03
2019-04-26T12:25:43.573Z,13.14
2019-04-26T12:30:39.604Z,13.19
2019-04-26T12:35:35.561Z,12.75
2019-04-26T12:40:31.536Z,12.85
2019-04-26T12:45:29.433Z,12.97
2019-04-26T12:50:41.973Z,12.86
2019-04-26T12:55:38.009Z,12.67
2019-04-26T13:00:37.390Z,12.63
2019-04-26T13:05:31.870Z,12.70
2019-04-26T13:10:31.330Z,12.89
2019-04-26T13:15:58.475Z,12.80
2019-04-26T13:21:02.934Z,12.97
2019-04-26T13:25:59.703Z,12.86
2019-04-26T13:30:55.067Z,12.84
2019-04-26T13:36:02.526Z,12.70
2019-04-26T13:40:48.920Z,12.79
2019-04-26T13:45:46.778Z,12.94
2019-04-26T13:50:48.891Z,12.95
2019-04-26T13:55:45.046Z,12.77
2019-04-26T14:00:43.453Z,13.08
2019-04-26T14:05:38.977Z,13.36
2019-04-26T14:10:34.988Z,13.11
2019-04-26T14:15:31.113Z,13.00
2019-04-26T14:20:38.430Z,13.11
2019-04-26T14:25:36.225Z,12.85
2019-04-26T14:30:32.264Z,12.98
2019-04-26T14:35:28.249Z,12.91
2019-04-26T14:40:24.331Z,13.00
2019-04-26T14:45:23.855Z,13.09
2019-04-26T14:50:19.608Z,13.36
2019-04-26T14:55:16.483Z,13.51
2019-04-26T15:00:16.684Z,13.58
2019-04-26T15:05:22.540Z,13.56
2019-04-26T15:10:20.376Z,13.40
2019-04-26T15:15:16.304Z,13.17
2019-04-26T15:20:12.795Z,13.38
2019-04-26T15:25:11.810Z,13.42
2019-04-26T15:30:09.174Z,13.39
2019-04-26T15:35:05.203Z,13.31
2019-04-26T15:40:19.988Z,13.40
2019-04-26T15:45:26.972Z,13.55
2019-04-26T15:55:33.871Z,13.97
2019-04-26T16:00:32.723Z,13.94
2019-04-26T16:05:29.498Z,14.06
2019-04-26T16:10:25.798Z,14.16
2019-04-26T16:15:23.332Z,14.44
2019-04-26T16:20:22.122Z,14.78
2019-04-26T16:25:18.254Z,15.11
2019-04-26T16:30:19.060Z,15.31
2019-04-26T16:35:18.342Z,15.05
2019-04-26T16:40:13.930Z,15.26
2019-04-26T16:45:10.134Z,15.13
2019-04-26T16:50:06.631Z,15.14
2019-04-26T16:55:05.051Z,14.54
2019-04-26T17:00:04.227Z,14.31
2019-04-26T17:05:04.615Z,14.34
2019-04-26T17:09:59.179Z,14.13
2019-04-26T17:14:54.538Z,14.41
2019-04-26T17:19:52.092Z,14.32
2019-04-26T17:24:55.890Z,14.33
2019-04-26T17:29:52.735Z,14.13
2019-04-26T17:34:48.929Z,13.68
2019-04-26T17:39:47.529Z,13.80
2019-04-26T17:44:42.675Z,13.89
2019-04-26T17:49:41.821Z,14.07
2019-04-26T17:54:45.917Z,13.63
2019-04-26T17:59:36.789Z,13.43
2019-04-26T18:04:36.930Z,13.40
2019-04-26T18:09:43.001Z,13.26
2019-04-26T18:14:31.861Z,13.05
2019-04-26T18:19:41.398Z,13.33
2019-04-26T18:24:37.324Z,13.15
2019-04-26T18:29:33.743Z,12.86
2019-04-26T18:34:30.598Z,12.64
2019-04-26T18:39:29.726Z,12.56
2019-04-26T18:44:36.297Z,12.45
2019-04-26T18:49:26.922Z,12.41
2019-04-26T18:54:29.939Z,12.42
2019-04-26T18:59:27.815Z,12.32
2019-04-26T19:04:23.809Z,12.40
2019-04-26T19:09:21.964Z,11.91
2019-04-26T19:14:48.779Z,11.76
2019-04-26T19:19:46.582Z,11.80
2019-04-26T19:24:44.786Z,11.69
2019-04-26T19:29:41.083Z,11.87
2019-04-26T19:34:38.755Z,11.92
2019-04-26T19:39:36.904Z,11.83
2019-04-26T19:44:32.662Z,11.78
2019-04-26T19:49:36.789Z,11.68
2019-04-26T19:54:44.620Z,11.47
2019-04-26T19:59:42.245Z,11.49
2019-04-26T20:04:38.562Z,11.48
2019-04-26T20:09:34.576Z,11.50
2019-04-26T20:14:45.063Z,11.23
2019-04-26T20:19:35.144Z,11.37
2019-04-26T20:24:28.302Z,11.68
2019-04-26T20:29:24.244Z,11.73
2019-04-26T20:34:21.797Z,11.68
2019-04-26T20:39:20.945Z,11.60
2019-04-26T20:44:22.384Z,11.51
2019-04-26T20:49:21.853Z,11.59
2019-04-26T20:54:18.511Z,11.48
2019-04-26T20:59:16.614Z,11.32
2019-04-26T21:04:33.810Z,11.34
2019-04-26T21:09:13.442Z,11.20
2019-04-26T21:14:10.248Z,11.27
2019-04-26T21:19:07.863Z,11.32
2019-04-26T21:24:05.696Z,11.18
2019-04-26T21:29:06.746Z,11.16
2019-04-26T21:34:11.844Z,11.09
2019-04-26T21:39:11.362Z,10.95
2019-04-26T21:44:12.270Z,10.98
2019-04-26T21:49:09.411Z,10.91
2019-04-26T21:54:05.773Z,10.94
2019-04-26T21:59:03.625Z,10.80
2019-04-26T22:04:00.147Z,10.76
2019-04-26T22:08:59.373Z,10.63
2019-04-26T22:14:00.227Z,10.62
2019-04-26T22:19:14.626Z,10.44
2019-04-26T22:24:13.267Z,10.50
2019-04-26T22:29:13.940Z,10.50
2019-04-26T22:34:08.845Z,10.21
2019-04-26T22:39:10.247Z,10.02
2019-04-26T22:44:13.971Z,10.07
2019-04-26T22:49:13.195Z,10.29
2019-04-26T22:54:09.062Z,10.22
2019-04-26T22:59:07.742Z,10.24
2019-04-26T23:04:03.485Z,10.32
2019-04-26T23:08:59.513Z,10.44
2019-04-26T23:14:04.496Z,10.39
2019-04-26T23:19:19.225Z,10.36
2019-04-26T23:24:18.890Z,10.28
2019-04-26T23:29:17.744Z,10.08
2019-04-26T23:34:14.273Z,10.10
2019-04-26T23:39:12.165Z,10.06
2019-04-26T23:44:08.253Z,9.98
2019-04-26T23:49:04.279Z,9.86
2019-04-26T23:54:00.912Z,9.87
2019-04-26T23:58:56.930Z,9.77
